Half Day, Illinois
Current Conditions -  °F | °C
As of 12:52 PM on Thursday 23 Oct 2014 (Local Time) from KPWK Reporting Station
Clear Clear  
Wind Chill: 16°   Ceiling: Unl
Heat Index: 16°   Visibility: 10mi
Dew Point:   Wind: 10mph
Humidity: 49%   Direction: 180°S
Pressure: 30.15"   Gusts: NA
Location:  42.1941°N, 87.9317°W
Report Text: KPWK 231752Z 18009KT 10SM CLR 16/05 A3015 RMK AO2 SLP213 T01560050 10156 20006 58025
Loading
Personal Weather Stations






























Interactive Weather Map
Tropical Storm Tracking
New forecast layout! Learn more

10-Day Weather Forecast

Advertisements
Track Severe Weather on mobile